KCDR/CDR METAR and TAF weather

Enter ICAO airport designator
Station Type Date Time Source
KCDR METAR 2022/06/28 07:53 UTC NOAA

KCDR 280753Z AUTO 00000KT 10SM CLR 12/04 A3020 RMK AO2 SLP207 T01170044 $


Station Type Date Time Source
KCDR Decoded METAR 2022/06/28 07:53 UTC NOAA

CHADRON MUNICIPAL AIRPORT, NE, United States (KCDR) 42-50N 103-06W 1010M
Jun 28, 2022 - 03:53 AM EDT / 2022.06.28 0753 UTC
Wind: Calm:0
Visibility: 10 mile(s):0
Sky conditions: clear
Temperature: 53.1 F (11.7 C)
Dew Point: 39.9 F (4.4 C)
Relative Humidity: 60%
Pressure (altimeter): 30.2 in. Hg (1022 hPa)
ob: KCDR 280753Z AUTO 00000KT 10SM CLR 12/04 A3020 RMK AO2 SLP207 T01170044
cycle: 8

Station Type Date Time Source
KCDR TAF 2022/06/09 12:22 UTC NOAA

TAF KCDR 091120Z 0912/1012 VRB06KT P6SM BKN250
FM091800 34012KT P6SM SCT250
FM100000 03010KT P6SM BKN250
FM100600 VRB02KT P6SM BKN250

Example: see airport list